sensor_id;sensor_type;location;lat;lon;timestamp;pressure;altitude;pressure_sealevel;temperature;humidity
61113;BME280;47184;57.998;56.184;2023-05-20T00:00:54;100890.91;;;10.61;51.82
61113;BME280;47184;57.998;56.184;2023-05-20T00:03:20;100945.28;;;11.02;51.49
61113;BME280;47184;57.998;56.184;2023-05-20T00:05:47;100942.22;;;11.07;51.50
61113;BME280;47184;57.998;56.184;2023-05-20T00:08:14;100934.41;;;11.05;51.74
61113;BME280;47184;57.998;56.184;2023-05-20T00:10:40;100949.69;;;11.21;51.38
61113;BME280;47184;57.998;56.184;2023-05-20T00:13:06;100947.44;;;11.26;52.17
61113;BME280;47184;57.998;56.184;2023-05-20T00:15:33;100945.09;;;11.33;52.06
61113;BME280;47184;57.998;56.184;2023-05-20T00:18:01;100930.63;;;11.27;52.09
61113;BME280;47184;57.998;56.184;2023-05-20T00:20:27;100957.13;;;11.55;52.25
61113;BME280;47184;57.998;56.184;2023-05-20T00:22:53;100958.63;;;11.67;51.64
61113;BME280;47184;57.998;56.184;2023-05-20T00:25:19;100969.59;;;11.82;51.66
61113;BME280;47184;57.998;56.184;2023-05-20T00:27:46;100961.50;;;11.93;51.77
61113;BME280;47184;57.998;56.184;2023-05-20T00:30:13;100962.00;;;12.06;51.36
61113;BME280;47184;57.998;56.184;2023-05-20T00:32:39;100962.34;;;12.21;51.66
61113;BME280;47184;57.998;56.184;2023-05-20T00:35:06;100960.72;;;12.38;51.36
61113;BME280;47184;57.998;56.184;2023-05-20T00:37:33;100950.34;;;12.45;51.11
61113;BME280;47184;57.998;56.184;2023-05-20T00:39:59;100962.88;;;12.70;51.12
61113;BME280;47184;57.998;56.184;2023-05-20T00:42:27;100961.97;;;12.79;50.88
61113;BME280;47184;57.998;56.184;2023-05-20T00:44:54;100959.63;;;12.94;50.42
61113;BME280;47184;57.998;56.184;2023-05-20T00:47:27;100959.00;;;13.00;50.44
61113;BME280;47184;57.998;56.184;2023-05-20T00:49:54;100968.59;;;13.19;50.17
61113;BME280;47184;57.998;56.184;2023-05-20T00:52:21;100965.22;;;13.27;49.98
61113;BME280;47184;57.998;56.184;2023-05-20T00:54:48;100957.44;;;13.33;49.92
61113;BME280;47184;57.998;56.184;2023-05-20T00:57:15;100971.31;;;13.45;49.93
61113;BME280;47184;57.998;56.184;2023-05-20T00:59:42;100955.91;;;13.49;49.63
61113;BME280;47184;57.998;56.184;2023-05-20T01:02:08;100969.75;;;13.60;49.51
61113;BME280;47184;57.998;56.184;2023-05-20T01:04:34;100937.59;;;13.37;49.38
61113;BME280;47184;57.998;56.184;2023-05-20T01:07:03;100955.88;;;13.75;49.27
61113;BME280;47184;57.998;56.184;2023-05-20T01:09:31;100960.63;;;13.89;49.33
61113;BME280;47184;57.998;56.184;2023-05-20T01:14:43;100970.03;;;14.18;48.66
61113;BME280;47184;57.998;56.184;2023-05-20T01:17:13;100955.59;;;14.28;48.48
61113;BME280;47184;57.998;56.184;2023-05-20T01:19:44;100952.50;;;14.33;48.58
61113;BME280;47184;57.998;56.184;2023-05-20T01:22:12;100968.63;;;14.48;48.23
61113;BME280;47184;57.998;56.184;2023-05-20T01:24:44;100973.47;;;14.52;48.28
61113;BME280;47184;57.998;56.184;2023-05-20T01:27:11;100969.88;;;14.61;48.16
61113;BME280;47184;57.998;56.184;2023-05-20T01:29:41;100965.88;;;14.66;47.66
61113;BME280;47184;57.998;56.184;2023-05-20T01:32:12;100973.03;;;14.73;47.22
61113;BME280;47184;57.998;56.184;2023-05-20T01:34:40;100975.53;;;14.83;47.07
61113;BME280;47184;57.998;56.184;2023-05-20T01:37:08;100969.56;;;14.89;46.78
61113;BME280;47184;57.998;56.184;2023-05-20T01:39:36;100976.69;;;14.89;46.69
61113;BME280;47184;57.998;56.184;2023-05-20T01:42:07;100969.06;;;14.94;46.33
61113;BME280;47184;57.998;56.184;2023-05-20T01:44:33;100968.59;;;15.06;46.32
61113;BME280;47184;57.998;56.184;2023-05-20T01:47:00;100973.41;;;15.11;46.13
61113;BME280;47184;57.998;56.184;2023-05-20T01:49:26;100959.44;;;15.01;45.61
61113;BME280;47184;57.998;56.184;2023-05-20T01:51:53;100979.03;;;15.00;45.68
61113;BME280;47184;57.998;56.184;2023-05-20T01:54:19;100974.22;;;15.03;45.50
61113;BME280;47184;57.998;56.184;2023-05-20T01:56:45;100984.69;;;15.05;45.67
61113;BME280;47184;57.998;56.184;2023-05-20T01:59:12;100981.03;;;15.06;45.61
61113;BME280;47184;57.998;56.184;2023-05-20T02:01:39;100979.56;;;15.03;45.80
61113;BME280;47184;57.998;56.184;2023-05-20T02:04:05;100974.38;;;15.10;45.32
61113;BME280;47184;57.998;56.184;2023-05-20T02:06:31;100982.03;;;15.13;45.73
61113;BME280;47184;57.998;56.184;2023-05-20T02:08:57;100981.22;;;15.13;45.31
61113;BME280;47184;57.998;56.184;2023-05-20T02:11:23;100978.22;;;15.16;45.31
61113;BME280;47184;57.998;56.184;2023-05-20T02:13:50;100975.56;;;15.16;45.45
61113;BME280;47184;57.998;56.184;2023-05-20T02:16:17;100981.03;;;15.22;45.07
61113;BME280;47184;57.998;56.184;2023-05-20T02:18:43;100978.22;;;15.24;45.11
61113;BME280;47184;57.998;56.184;2023-05-20T02:21:15;100982.72;;;15.23;45.10
61113;BME280;47184;57.998;56.184;2023-05-20T02:23:41;100979.88;;;15.25;45.62
61113;BME280;47184;57.998;56.184;2023-05-20T02:26:07;100969.56;;;15.22;45.31
61113;BME280;47184;57.998;56.184;2023-05-20T02:28:36;100981.03;;;15.39;45.08
61113;BME280;47184;57.998;56.184;2023-05-20T02:31:05;100953.09;;;15.10;45.37
61113;BME280;47184;57.998;56.184;2023-05-20T02:33:31;100986.69;;;15.44;45.28
61113;BME280;47184;57.998;56.184;2023-05-20T02:36:00;100989.34;;;15.60;44.59
61113;BME280;47184;57.998;56.184;2023-05-20T02:38:26;100980.66;;;15.74;44.83
61113;BME280;47184;57.998;56.184;2023-05-20T02:40:52;100990.66;;;15.80;44.75
61113;BME280;47184;57.998;56.184;2023-05-20T02:43:18;100993.81;;;15.84;44.22
61113;BME280;47184;57.998;56.184;2023-05-20T02:45:45;100994.13;;;15.89;44.39
61113;BME280;47184;57.998;56.184;2023-05-20T02:48:13;100985.78;;;15.92;44.24
61113;BME280;47184;57.998;56.184;2023-05-20T02:50:39;100972.94;;;15.96;44.07
61113;BME280;47184;57.998;56.184;2023-05-20T02:53:05;100969.94;;;15.99;43.93
61113;BME280;47184;57.998;56.184;2023-05-20T02:55:35;100978.69;;;16.16;43.93
61113;BME280;47184;57.998;56.184;2023-05-20T02:58:02;100984.34;;;16.21;43.65
61113;BME280;47184;57.998;56.184;2023-05-20T03:00:32;100985.81;;;16.23;43.59
61113;BME280;47184;57.998;56.184;2023-05-20T03:03:06;100989.59;;;16.37;43.28
61113;BME280;47184;57.998;56.184;2023-05-20T03:05:33;100987.78;;;16.38;43.34
61113;BME280;47184;57.998;56.184;2023-05-20T03:08:08;100986.28;;;16.35;43.56
61113;BME280;47184;57.998;56.184;2023-05-20T03:10:38;100944.84;;;16.24;43.18
61113;BME280;47184;57.998;56.184;2023-05-20T03:13:06;100989.19;;;16.48;43.42
61113;BME280;47184;57.998;56.184;2023-05-20T03:15:40;100970.22;;;16.43;43.38
61113;BME280;47184;57.998;56.184;2023-05-20T03:18:07;100990.75;;;16.74;43.10
61113;BME280;47184;57.998;56.184;2023-05-20T03:20:34;100953.06;;;16.69;43.08
61113;BME280;47184;57.998;56.184;2023-05-20T03:23:06;100972.19;;;17.03;42.52
61113;BME280;47184;57.998;56.184;2023-05-20T03:25:32;100987.13;;;17.36;42.16
61113;BME280;47184;57.998;56.184;2023-05-20T03:28:01;100990.53;;;17.59;41.78
61113;BME280;47184;57.998;56.184;2023-05-20T03:30:28;100992.34;;;17.81;41.54
61113;BME280;47184;57.998;56.184;2023-05-20T03:32:58;100970.34;;;17.94;41.22
61113;BME280;47184;57.998;56.184;2023-05-20T03:35:25;100985.59;;;18.15;40.68
61113;BME280;47184;57.998;56.184;2023-05-20T03:37:52;100992.13;;;18.27;40.49
61113;BME280;47184;57.998;56.184;2023-05-20T03:40:20;100989.28;;;18.29;40.48
61113;BME280;47184;57.998;56.184;2023-05-20T03:42:47;100988.78;;;18.40;40.34
61113;BME280;47184;57.998;56.184;2023-05-20T03:45:17;100995.38;;;18.38;40.42
61113;BME280;47184;57.998;56.184;2023-05-20T03:47:53;100960.97;;;18.35;40.33
61113;BME280;47184;57.998;56.184;2023-05-20T03:50:19;100997.41;;;18.57;39.93
61113;BME280;47184;57.998;56.184;2023-05-20T03:52:46;100992.84;;;18.51;39.92
61113;BME280;47184;57.998;56.184;2023-05-20T03:55:13;100994.03;;;18.48;40.13
61113;BME280;47184;57.998;56.184;2023-05-20T03:57:40;100995.84;;;18.63;40.01
61113;BME280;47184;57.998;56.184;2023-05-20T04:00:06;100954.47;;;18.44;39.72
61113;BME280;47184;57.998;56.184;2023-05-20T04:02:42;100984.81;;;18.87;39.45
61113;BME280;47184;57.998;56.184;2023-05-20T04:05:11;100992.38;;;19.05;39.08
61113;BME280;47184;57.998;56.184;2023-05-20T04:07:38;100997.03;;;19.18;39.12
61113;BME280;47184;57.998;56.184;2023-05-20T04:10:07;100987.75;;;19.42;38.48
61113;BME280;47184;57.998;56.184;2023-05-20T04:12:33;100963.25;;;19.45;37.83
61113;BME280;47184;57.998;56.184;2023-05-20T04:15:02;100972.59;;;19.84;37.68
61113;BME280;47184;57.998;56.184;2023-05-20T04:17:32;100982.88;;;20.15;37.06
61113;BME280;47184;57.998;56.184;2023-05-20T04:19:59;100984.63;;;20.42;36.59
61113;BME280;47184;57.998;56.184;2023-05-20T04:22:26;100951.38;;;20.37;36.34
61113;BME280;47184;57.998;56.184;2023-05-20T04:24:52;100973.00;;;20.83;35.87
61113;BME280;47184;57.998;56.184;2023-05-20T04:27:18;100989.38;;;21.15;35.29
61113;BME280;47184;57.998;56.184;2023-05-20T04:29:45;100973.66;;;21.32;34.35
61113;BME280;47184;57.998;56.184;2023-05-20T04:32:16;100965.19;;;21.41;33.67
61113;BME280;47184;57.998;56.184;2023-05-20T04:34:43;100985.59;;;21.89;33.05
61113;BME280;47184;57.998;56.184;2023-05-20T04:37:12;100982.66;;;21.97;32.55
61113;BME280;47184;57.998;56.184;2023-05-20T04:39:40;100981.38;;;22.19;31.76
61113;BME280;47184;57.998;56.184;2023-05-20T04:42:12;100980.06;;;22.35;31.49
61113;BME280;47184;57.998;56.184;2023-05-20T04:44:38;100981.44;;;22.51;30.99
61113;BME280;47184;57.998;56.184;2023-05-20T04:47:04;100973.50;;;22.63;30.66
61113;BME280;47184;57.998;56.184;2023-05-20T04:49:36;100977.34;;;22.73;30.20
61113;BME280;47184;57.998;56.184;2023-05-20T04:52:04;100992.16;;;22.89;30.18
61113;BME280;47184;57.998;56.184;2023-05-20T04:54:31;100990.69;;;23.00;29.30
61113;BME280;47184;57.998;56.184;2023-05-20T04:56:58;100965.97;;;22.78;29.43
61113;BME280;47184;57.998;56.184;2023-05-20T04:59:24;100984.91;;;22.58;28.87
61113;BME280;47184;57.998;56.184;2023-05-20T05:01:51;100986.56;;;22.21;28.90
61113;BME280;47184;57.998;56.184;2023-05-20T05:04:17;100977.84;;;22.25;28.73
61113;BME280;47184;57.998;56.184;2023-05-20T05:06:43;100984.34;;;22.49;28.34
61113;BME280;47184;57.998;56.184;2023-05-20T05:09:10;100974.19;;;22.52;28.40
61113;BME280;47184;57.998;56.184;2023-05-20T05:11:39;100979.09;;;22.61;27.72
61113;BME280;47184;57.998;56.184;2023-05-20T05:14:05;100981.47;;;22.44;27.77
61113;BME280;47184;57.998;56.184;2023-05-20T05:16:34;100985.16;;;22.82;27.56
61113;BME280;47184;57.998;56.184;2023-05-20T05:19:00;100983.03;;;23.22;26.83
61113;BME280;47184;57.998;56.184;2023-05-20T05:21:29;100965.34;;;23.51;26.56
61113;BME280;47184;57.998;56.184;2023-05-20T05:23:56;100977.78;;;23.95;26.15
61113;BME280;47184;57.998;56.184;2023-05-20T05:26:23;100984.75;;;24.21;26.08
61113;BME280;47184;57.998;56.184;2023-05-20T05:28:49;100981.09;;;24.64;25.37
61113;BME280;47184;57.998;56.184;2023-05-20T05:31:15;100972.94;;;24.83;25.08
61113;BME280;47184;57.998;56.184;2023-05-20T05:33:41;100987.94;;;25.20;24.58
61113;BME280;47184;57.998;56.184;2023-05-20T05:36:08;100991.03;;;25.36;24.09
61113;BME280;47184;57.998;56.184;2023-05-20T05:38:34;100988.09;;;25.61;23.95
61113;BME280;47184;57.998;56.184;2023-05-20T05:41:00;100984.31;;;25.97;23.66
61113;BME280;47184;57.998;56.184;2023-05-20T05:43:27;100974.56;;;26.25;23.53
61113;BME280;47184;57.998;56.184;2023-05-20T05:45:53;100975.03;;;26.33;23.51
61113;BME280;47184;57.998;56.184;2023-05-20T05:48:20;100979.00;;;26.71;23.32
61113;BME280;47184;57.998;56.184;2023-05-20T05:50:47;100983.03;;;27.02;22.67
61113;BME280;47184;57.998;56.184;2023-05-20T05:53:15;100978.66;;;27.30;22.23
61113;BME280;47184;57.998;56.184;2023-05-20T05:55:45;100987.47;;;27.76;22.01
61113;BME280;47184;57.998;56.184;2023-05-20T05:58:12;100977.97;;;27.73;21.93
61113;BME280;47184;57.998;56.184;2023-05-20T06:00:41;100976.91;;;27.40;21.86
61113;BME280;47184;57.998;56.184;2023-05-20T06:03:08;100980.84;;;27.50;21.37
61113;BME280;47184;57.998;56.184;2023-05-20T06:05:45;100980.06;;;27.71;21.00
61113;BME280;47184;57.998;56.184;2023-05-20T06:08:19;100959.41;;;27.48;21.17
61113;BME280;47184;57.998;56.184;2023-05-20T06:10:51;100966.19;;;27.51;20.85
61113;BME280;47184;57.998;56.184;2023-05-20T06:13:17;100975.91;;;27.47;21.12
61113;BME280;47184;57.998;56.184;2023-05-20T06:15:43;100975.94;;;27.30;20.57
61113;BME280;47184;57.998;56.184;2023-05-20T06:18:13;100969.06;;;27.61;20.51
61113;BME280;47184;57.998;56.184;2023-05-20T06:20:39;100972.72;;;27.72;20.38
61113;BME280;47184;57.998;56.184;2023-05-20T06:23:06;100972.09;;;28.25;20.06
61113;BME280;47184;57.998;56.184;2023-05-20T06:25:44;100978.66;;;29.10;19.34
61113;BME280;47184;57.998;56.184;2023-05-20T06:41:07;100974.72;;;32.46;15.55
61113;BME280;47184;57.998;56.184;2023-05-20T06:43:33;100975.97;;;33.03;15.61
61113;BME280;47184;57.998;56.184;2023-05-20T06:46:04;100965.91;;;32.94;15.44
61113;BME280;47184;57.998;56.184;2023-05-20T06:48:35;100935.09;;;32.78;15.41
61113;BME280;47184;57.998;56.184;2023-05-20T06:51:02;100924.25;;;33.02;15.40
61113;BME280;47184;57.998;56.184;2023-05-20T06:53:29;100892.97;;;33.61;14.92
61113;BME280;47184;57.998;56.184;2023-05-20T06:55:56;100949.41;;;34.43;14.65
61113;BME280;47184;57.998;56.184;2023-05-20T06:58:22;100974.91;;;35.14;14.10
61113;BME280;47184;57.998;56.184;2023-05-20T07:00:49;100898.16;;;34.76;13.78
61113;BME280;47184;57.998;56.184;2023-05-20T07:03:18;100973.53;;;35.30;13.98
61113;BME280;47184;57.998;56.184;2023-05-20T07:05:45;100914.34;;;35.24;13.59
61113;BME280;47184;57.998;56.184;2023-05-20T07:08:11;100974.28;;;35.91;13.38
61113;BME280;47184;57.998;56.184;2023-05-20T07:10:37;100981.94;;;35.66;13.90
61113;BME280;47184;57.998;56.184;2023-05-20T07:13:04;100984.22;;;34.66;14.11
61113;BME280;47184;57.998;56.184;2023-05-20T07:15:30;100926.31;;;33.68;14.47
61113;BME280;47184;57.998;56.184;2023-05-20T07:17:56;100973.88;;;34.20;14.05
61113;BME280;47184;57.998;56.184;2023-05-20T07:20:23;100927.19;;;34.63;13.71
61113;BME280;47184;57.998;56.184;2023-05-20T07:22:49;100980.22;;;36.48;12.60
61113;BME280;47184;57.998;56.184;2023-05-20T07:25:31;100971.16;;;36.92;12.11
61113;BME280;47184;57.998;56.184;2023-05-20T07:27:57;100951.06;;;36.69;11.91
61113;BME280;47184;57.998;56.184;2023-05-20T07:30:25;100958.34;;;35.19;12.91
61113;BME280;47184;57.998;56.184;2023-05-20T07:33:12;100985.56;;;34.07;13.06
61113;BME280;47184;57.998;56.184;2023-05-20T07:35:38;100978.31;;;33.97;13.01
61113;BME280;47184;57.998;56.184;2023-05-20T07:38:04;100955.31;;;35.20;12.39
61113;BME280;47184;57.998;56.184;2023-05-20T07:40:30;100977.03;;;35.50;12.08
61113;BME280;47184;57.998;56.184;2023-05-20T07:42:57;100969.38;;;35.46;12.38
61113;BME280;47184;57.998;56.184;2023-05-20T07:45:23;100943.44;;;34.92;12.55
61113;BME280;47184;57.998;56.184;2023-05-20T07:47:49;100931.78;;;33.87;13.29
61113;BME280;47184;57.998;56.184;2023-05-20T07:50:15;100979.81;;;33.61;13.32
61113;BME280;47184;57.998;56.184;2023-05-20T07:52:41;100935.19;;;34.41;12.97
61113;BME280;47184;57.998;56.184;2023-05-20T07:55:07;100964.44;;;35.62;12.75
61113;BME280;47184;57.998;56.184;2023-05-20T07:57:33;100947.84;;;35.81;12.38
61113;BME280;47184;57.998;56.184;2023-05-20T08:00:00;100899.41;;;34.84;12.73
61113;BME280;47184;57.998;56.184;2023-05-20T08:02:26;100959.47;;;35.18;12.58
61113;BME280;47184;57.998;56.184;2023-05-20T08:04:53;100970.88;;;34.60;12.71
61113;BME280;47184;57.998;56.184;2023-05-20T08:07:19;100926.22;;;33.97;13.03
61113;BME280;47184;57.998;56.184;2023-05-20T08:09:52;100959.78;;;35.30;12.29
61113;BME280;47184;57.998;56.184;2023-05-20T08:12:19;100935.44;;;35.56;12.31
61113;BME280;47184;57.998;56.184;2023-05-20T08:14:45;100904.16;;;36.52;11.86
61113;BME280;47184;57.998;56.184;2023-05-20T08:17:12;100882.31;;;36.78;11.44
61113;BME280;47184;57.998;56.184;2023-05-20T08:19:38;100956.75;;;36.73;11.88
61113;BME280;47184;57.998;56.184;2023-05-20T08:22:05;100927.38;;;36.01;11.96
61113;BME280;47184;57.998;56.184;2023-05-20T08:24:32;100933.16;;;34.84;12.27
61113;BME280;47184;57.998;56.184;2023-05-20T08:26:58;100941.81;;;34.91;12.22
61113;BME280;47184;57.998;56.184;2023-05-20T08:29:25;100905.97;;;36.34;11.52
61113;BME280;47184;57.998;56.184;2023-05-20T08:31:52;100948.53;;;39.14;10.41
61113;BME280;47184;57.998;56.184;2023-05-20T08:34:19;100960.38;;;39.70;9.90
61113;BME280;47184;57.998;56.184;2023-05-20T08:36:45;100955.84;;;40.37;9.62
61113;BME280;47184;57.998;56.184;2023-05-20T08:39:11;100917.63;;;40.84;9.63
61113;BME280;47184;57.998;56.184;2023-05-20T08:41:38;100925.47;;;40.95;9.60
61113;BME280;47184;57.998;56.184;2023-05-20T08:44:05;100921.22;;;41.95;9.03
61113;BME280;47184;57.998;56.184;2023-05-20T08:46:34;100940.75;;;41.01;9.58
61113;BME280;47184;57.998;56.184;2023-05-20T08:49:02;100917.03;;;39.83;9.66
61113;BME280;47184;57.998;56.184;2023-05-20T08:51:28;100893.03;;;40.83;9.43
61113;BME280;47184;57.998;56.184;2023-05-20T08:53:58;100938.09;;;42.43;9.07
61113;BME280;47184;57.998;56.184;2023-05-20T08:56:25;100912.19;;;42.83;8.83
61113;BME280;47184;57.998;56.184;2023-05-20T08:58:52;100945.88;;;41.60;9.18
61113;BME280;47184;57.998;56.184;2023-05-20T09:01:22;100938.16;;;41.66;9.08
61113;BME280;47184;57.998;56.184;2023-05-20T09:03:48;100933.19;;;41.47;8.76
61113;BME280;47184;57.998;56.184;2023-05-20T09:06:16;100938.13;;;41.29;9.12
61113;BME280;47184;57.998;56.184;2023-05-20T09:08:47;100924.25;;;41.90;9.21
61113;BME280;47184;57.998;56.184;2023-05-20T09:11:13;100930.03;;;42.53;8.73
61113;BME280;47184;57.998;56.184;2023-05-20T09:13:39;100930.63;;;42.59;8.90
61113;BME280;47184;57.998;56.184;2023-05-20T09:16:09;100928.72;;;42.07;8.57
61113;BME280;47184;57.998;56.184;2023-05-20T09:18:39;100929.84;;;40.83;8.96
61113;BME280;47184;57.998;56.184;2023-05-20T09:21:08;100897.28;;;40.80;9.31
61113;BME280;47184;57.998;56.184;2023-05-20T09:23:38;100890.31;;;41.07;8.90
61113;BME280;47184;57.998;56.184;2023-05-20T09:26:04;100929.22;;;41.85;9.12
61113;BME280;47184;57.998;56.184;2023-05-20T09:28:30;100873.44;;;42.58;8.58
61113;BME280;47184;57.998;56.184;2023-05-20T09:30:59;100901.50;;;41.60;9.06
61113;BME280;47184;57.998;56.184;2023-05-20T09:33:27;100926.25;;;41.53;9.24
61113;BME280;47184;57.998;56.184;2023-05-20T09:36:06;100924.19;;;42.15;9.13
61113;BME280;47184;57.998;56.184;2023-05-20T09:38:35;100926.22;;;41.04;9.72
61113;BME280;47184;57.998;56.184;2023-05-20T09:41:11;100858.56;;;38.49;10.27
61113;BME280;47184;57.998;56.184;2023-05-20T09:43:39;100924.63;;;38.28;10.79
61113;BME280;47184;57.998;56.184;2023-05-20T09:46:06;100921.66;;;38.76;10.52
61113;BME280;47184;57.998;56.184;2023-05-20T09:48:35;100906.94;;;39.10;10.39
61113;BME280;47184;57.998;56.184;2023-05-20T09:51:03;100919.91;;;38.46;10.56
61113;BME280;47184;57.998;56.184;2023-05-20T09:53:30;100935.97;;;38.61;11.01
61113;BME280;47184;57.998;56.184;2023-05-20T09:55:57;100915.16;;;39.66;10.47
61113;BME280;47184;57.998;56.184;2023-05-20T09:58:23;100885.50;;;40.71;9.81
61113;BME280;47184;57.998;56.184;2023-05-20T10:00:50;100907.53;;;41.38;9.21
61113;BME280;47184;57.998;56.184;2023-05-20T10:03:17;100906.34;;;41.88;9.06
61113;BME280;47184;57.998;56.184;2023-05-20T10:17:23;100930.84;;;41.00;9.24
61113;BME280;47184;57.998;56.184;2023-05-20T10:19:57;100880.53;;;40.31;9.51
61113;BME280;47184;57.998;56.184;2023-05-20T10:22:28;100923.66;;;41.72;8.92
61113;BME280;47184;57.998;56.184;2023-05-20T10:25:04;100871.78;;;43.17;8.35
61113;BME280;47184;57.998;56.184;2023-05-20T10:27:46;100923.59;;;43.57;8.28
61113;BME280;47184;57.998;56.184;2023-05-20T10:30:20;100922.56;;;40.79;9.50
61113;BME280;47184;57.998;56.184;2023-05-20T10:32:57;100931.00;;;37.62;10.74
61113;BME280;47184;57.998;56.184;2023-05-20T10:35:27;100891.97;;;36.67;10.99
61113;BME280;47184;57.998;56.184;2023-05-20T10:38:05;100914.88;;;37.96;10.62
61113;BME280;47184;57.998;56.184;2023-05-20T10:40:32;100874.94;;;39.98;9.93
61113;BME280;47184;57.998;56.184;2023-05-20T10:43:10;100898.41;;;41.62;8.79
61113;BME280;47184;57.998;56.184;2023-05-20T10:45:53;100920.84;;;43.09;8.36
61113;BME280;47184;57.998;56.184;2023-05-20T10:48:26;100919.56;;;43.38;8.25
61113;BME280;47184;57.998;56.184;2023-05-20T10:51:00;100866.84;;;43.26;8.35
61113;BME280;47184;57.998;56.184;2023-05-20T10:53:38;100920.63;;;43.85;7.94
61113;BME280;47184;57.998;56.184;2023-05-20T10:56:14;100909.47;;;44.62;7.75
61113;BME280;47184;57.998;56.184;2023-05-20T10:58:41;100919.31;;;46.35;7.34
61113;BME280;47184;57.998;56.184;2023-05-20T11:01:09;100918.31;;;47.43;6.75
61113;BME280;47184;57.998;56.184;2023-05-20T11:03:36;100920.75;;;46.96;6.88
61113;BME280;47184;57.998;56.184;2023-05-20T11:06:10;100909.88;;;45.56;7.27
61113;BME280;47184;57.998;56.184;2023-05-20T11:08:37;100907.50;;;43.66;7.84
61113;BME280;47184;57.998;56.184;2023-05-20T11:11:03;100898.38;;;41.74;8.51
61113;BME280;47184;57.998;56.184;2023-05-20T11:13:30;100864.66;;;39.99;9.00
61113;BME280;47184;57.998;56.184;2023-05-20T11:15:56;100882.94;;;39.02;9.48
61113;BME280;47184;57.998;56.184;2023-05-20T11:18:26;100896.00;;;39.31;9.53
61113;BME280;47184;57.998;56.184;2023-05-20T11:20:57;100904.72;;;40.22;8.94
61113;BME280;47184;57.998;56.184;2023-05-20T11:23:24;100901.84;;;40.97;8.97
61113;BME280;47184;57.998;56.184;2023-05-20T11:25:52;100899.84;;;39.39;9.05
61113;BME280;47184;57.998;56.184;2023-05-20T11:28:19;100902.69;;;37.88;9.72
61113;BME280;47184;57.998;56.184;2023-05-20T11:30:46;100898.66;;;37.94;10.00
61113;BME280;47184;57.998;56.184;2023-05-20T11:33:14;100897.44;;;38.99;9.70
61113;BME280;47184;57.998;56.184;2023-05-20T11:35:50;100911.75;;;39.31;9.58
61113;BME280;47184;57.998;56.184;2023-05-20T11:38:17;100907.22;;;38.71;9.74
61113;BME280;47184;57.998;56.184;2023-05-20T11:40:51;100905.81;;;38.30;9.99
61113;BME280;47184;57.998;56.184;2023-05-20T11:43:19;100910.28;;;37.74;9.93
61113;BME280;47184;57.998;56.184;2023-05-20T11:45:47;100876.00;;;35.96;10.69
61113;BME280;47184;57.998;56.184;2023-05-20T11:48:13;100899.88;;;35.18;11.09
61113;BME280;47184;57.998;56.184;2023-05-20T11:50:44;100895.88;;;34.45;11.52
61113;BME280;47184;57.998;56.184;2023-05-20T11:53:13;100878.22;;;34.19;11.52
61113;BME280;47184;57.998;56.184;2023-05-20T11:55:57;100812.88;;;34.07;11.33
61113;BME280;47184;57.998;56.184;2023-05-20T11:58:28;100896.25;;;34.90;11.36
61113;BME280;47184;57.998;56.184;2023-05-20T12:00:54;100900.16;;;34.38;11.61
61113;BME280;47184;57.998;56.184;2023-05-20T12:03:21;100900.72;;;33.01;12.26
61113;BME280;47184;57.998;56.184;2023-05-20T12:05:48;100900.56;;;32.53;12.73
61113;BME280;47184;57.998;56.184;2023-05-20T12:08:15;100845.41;;;32.06;12.44
61113;BME280;47184;57.998;56.184;2023-05-20T12:10:42;100826.38;;;31.91;12.89
61113;BME280;47184;57.998;56.184;2023-05-20T12:13:10;100899.31;;;32.35;12.76
61113;BME280;47184;57.998;56.184;2023-05-20T12:15:39;100893.31;;;31.89;13.22
61113;BME280;47184;57.998;56.184;2023-05-20T12:18:05;100888.19;;;31.67;13.52
61113;BME280;47184;57.998;56.184;2023-05-20T12:20:32;100833.41;;;31.48;13.51
61113;BME280;47184;57.998;56.184;2023-05-20T12:23:00;100870.03;;;31.96;13.21
61113;BME280;47184;57.998;56.184;2023-05-20T12:25:26;100894.63;;;32.41;13.08
61113;BME280;47184;57.998;56.184;2023-05-20T12:27:53;100883.13;;;31.99;13.36
61113;BME280;47184;57.998;56.184;2023-05-20T12:30:20;100867.09;;;30.92;13.66
61113;BME280;47184;57.998;56.184;2023-05-20T12:32:48;100894.94;;;30.74;13.86
61113;BME280;47184;57.998;56.184;2023-05-20T12:35:15;100811.94;;;31.16;13.25
61113;BME280;47184;57.998;56.184;2023-05-20T12:37:42;100893.09;;;33.22;12.50
61113;BME280;47184;57.998;56.184;2023-05-20T12:40:11;100888.94;;;33.29;12.63
61113;BME280;47184;57.998;56.184;2023-05-20T12:42:39;100829.66;;;32.62;12.81
61113;BME280;47184;57.998;56.184;2023-05-20T12:45:07;100852.44;;;34.01;12.31
61113;BME280;47184;57.998;56.184;2023-05-20T12:47:34;100886.81;;;36.07;11.62
61113;BME280;47184;57.998;56.184;2023-05-20T12:50:01;100890.53;;;37.32;10.57
61113;BME280;47184;57.998;56.184;2023-05-20T12:52:33;100890.97;;;37.74;10.25
61113;BME280;47184;57.998;56.184;2023-05-20T12:55:00;100891.50;;;35.92;10.99
61113;BME280;47184;57.998;56.184;2023-05-20T12:57:26;100886.78;;;35.15;11.26
61113;BME280;47184;57.998;56.184;2023-05-20T12:59:52;100830.47;;;34.85;11.58
61113;BME280;47184;57.998;56.184;2023-05-20T13:02:19;100887.06;;;36.19;10.85
61113;BME280;47184;57.998;56.184;2023-05-20T13:04:45;100828.63;;;36.13;10.80
61113;BME280;47184;57.998;56.184;2023-05-20T13:07:11;100876.56;;;36.66;10.75
61113;BME280;47184;57.998;56.184;2023-05-20T13:09:37;100899.16;;;37.48;10.71
61113;BME280;47184;57.998;56.184;2023-05-20T13:12:04;100815.88;;;38.29;10.23
61113;BME280;47184;57.998;56.184;2023-05-20T13:14:30;100890.56;;;39.44;9.79